sensor_id;sensor_type;location;lat;lon;timestamp;temperature;humidity
69503;SHT31;56704;54.242;12.442;2023-06-22T00:01:11;16.05;84.90
69503;SHT31;56704;54.242;12.442;2023-06-22T00:03:38;16.05;85.14
69503;SHT31;56704;54.242;12.442;2023-06-22T00:06:04;16.02;85.28
69503;SHT31;56704;54.242;12.442;2023-06-22T00:08:31;16.02;85.27
69503;SHT31;56704;54.242;12.442;2023-06-22T00:10:59;16.01;85.44
69503;SHT31;56704;54.242;12.442;2023-06-22T00:13:26;16.00;85.67
69503;SHT31;56704;54.242;12.442;2023-06-22T00:15:52;15.94;86.13
69503;SHT31;56704;54.242;12.442;2023-06-22T00:18:19;15.91;86.15
69503;SHT31;56704;54.242;12.442;2023-06-22T00:20:46;15.90;86.42
69503;SHT31;56704;54.242;12.442;2023-06-22T00:23:12;15.94;86.22
69503;SHT31;56704;54.242;12.442;2023-06-22T00:25:42;15.94;86.24
69503;SHT31;56704;54.242;12.442;2023-06-22T00:28:10;15.96;86.23
69503;SHT31;56704;54.242;12.442;2023-06-22T00:30:37;15.93;86.41
69503;SHT31;56704;54.242;12.442;2023-06-22T00:33:03;15.93;86.65
69503;SHT31;56704;54.242;12.442;2023-06-22T00:35:33;15.90;86.67
69503;SHT31;56704;54.242;12.442;2023-06-22T00:38:00;15.91;87.20
69503;SHT31;56704;54.242;12.442;2023-06-22T00:40:29;15.94;87.18
69503;SHT31;56704;54.242;12.442;2023-06-22T00:42:56;15.91;87.20
69503;SHT31;56704;54.242;12.442;2023-06-22T00:45:24;15.94;87.06
69503;SHT31;56704;54.242;12.442;2023-06-22T00:47:52;15.91;87.03
69503;SHT31;56704;54.242;12.442;2023-06-22T00:50:21;15.93;87.08
69503;SHT31;56704;54.242;12.442;2023-06-22T00:52:51;15.94;86.97
69503;SHT31;56704;54.242;12.442;2023-06-22T00:55:18;15.94;86.47
69503;SHT31;56704;54.242;12.442;2023-06-22T00:57:45;15.90;86.38
69503;SHT31;56704;54.242;12.442;2023-06-22T01:00:13;15.87;86.08
69503;SHT31;56704;54.242;12.442;2023-06-22T01:02:45;15.87;85.93
69503;SHT31;56704;54.242;12.442;2023-06-22T01:05:17;15.88;85.93
69503;SHT31;56704;54.242;12.442;2023-06-22T01:07:52;15.87;86.38
69503;SHT31;56704;54.242;12.442;2023-06-22T01:10:27;15.81;86.39
69503;SHT31;56704;54.242;12.442;2023-06-22T01:12:58;15.80;86.90
69503;SHT31;56704;54.242;12.442;2023-06-22T01:15:30;15.77;86.75
69503;SHT31;56704;54.242;12.442;2023-06-22T01:17:59;15.70;87.03
69503;SHT31;56704;54.242;12.442;2023-06-22T01:20:27;15.63;87.57
69503;SHT31;56704;54.242;12.442;2023-06-22T01:23:05;15.61;87.59
69503;SHT31;56704;54.242;12.442;2023-06-22T01:25:37;15.61;87.94
69503;SHT31;56704;54.242;12.442;2023-06-22T01:28:19;15.60;87.79
69503;SHT31;56704;54.242;12.442;2023-06-22T01:30:51;15.51;87.93
69503;SHT31;56704;54.242;12.442;2023-06-22T01:33:29;15.57;87.72
69503;SHT31;56704;54.242;12.442;2023-06-22T01:35:56;15.53;87.44
69503;SHT31;56704;54.242;12.442;2023-06-22T01:38:23;15.54;87.52
69503;SHT31;56704;54.242;12.442;2023-06-22T01:40:50;15.56;87.21
69503;SHT31;56704;54.242;12.442;2023-06-22T01:43:17;15.60;87.04
69503;SHT31;56704;54.242;12.442;2023-06-22T01:45:44;15.60;86.68
69503;SHT31;56704;54.242;12.442;2023-06-22T01:48:12;15.57;86.65
69503;SHT31;56704;54.242;12.442;2023-06-22T01:50:39;15.57;86.37
69503;SHT31;56704;54.242;12.442;2023-06-22T01:53:07;15.57;86.25
69503;SHT31;56704;54.242;12.442;2023-06-22T01:55:33;15.60;86.32
69503;SHT31;56704;54.242;12.442;2023-06-22T01:58:00;15.59;87.01
69503;SHT31;56704;54.242;12.442;2023-06-22T02:00:28;15.56;86.97
69503;SHT31;56704;54.242;12.442;2023-06-22T02:03:01;15.53;86.78
69503;SHT31;56704;54.242;12.442;2023-06-22T02:05:34;15.49;87.00
69503;SHT31;56704;54.242;12.442;2023-06-22T02:08:08;15.49;87.27
69503;SHT31;56704;54.242;12.442;2023-06-22T02:10:36;15.51;87.58
69503;SHT31;56704;54.242;12.442;2023-06-22T02:13:06;15.56;87.14
69503;SHT31;56704;54.242;12.442;2023-06-22T02:15:34;15.44;87.38
69503;SHT31;56704;54.242;12.442;2023-06-22T02:18:01;15.60;87.11
69503;SHT31;56704;54.242;12.442;2023-06-22T02:20:27;15.66;86.49
69503;SHT31;56704;54.242;12.442;2023-06-22T02:22:55;15.50;87.22
69503;SHT31;56704;54.242;12.442;2023-06-22T02:25:22;15.49;87.21
69503;SHT31;56704;54.242;12.442;2023-06-22T02:27:49;15.47;87.28
69503;SHT31;56704;54.242;12.442;2023-06-22T02:30:15;15.46;87.59
69503;SHT31;56704;54.242;12.442;2023-06-22T02:32:42;15.43;87.42
69503;SHT31;56704;54.242;12.442;2023-06-22T02:35:09;15.40;87.53
69503;SHT31;56704;54.242;12.442;2023-06-22T02:37:36;15.50;87.01
69503;SHT31;56704;54.242;12.442;2023-06-22T02:40:06;15.50;87.22
69503;SHT31;56704;54.242;12.442;2023-06-22T02:42:34;15.57;86.81
69503;SHT31;56704;54.242;12.442;2023-06-22T02:45:00;15.78;86.26
69503;SHT31;56704;54.242;12.442;2023-06-22T02:47:27;15.78;86.31
69503;SHT31;56704;54.242;12.442;2023-06-22T02:49:54;15.66;86.54
69503;SHT31;56704;54.242;12.442;2023-06-22T02:52:20;15.63;86.64
69503;SHT31;56704;54.242;12.442;2023-06-22T02:54:47;15.67;87.01
69503;SHT31;56704;54.242;12.442;2023-06-22T02:57:15;15.44;87.73
69503;SHT31;56704;54.242;12.442;2023-06-22T02:59:42;15.38;88.07
69503;SHT31;56704;54.242;12.442;2023-06-22T03:02:09;15.40;88.00
69503;SHT31;56704;54.242;12.442;2023-06-22T03:04:36;15.51;87.51
69503;SHT31;56704;54.242;12.442;2023-06-22T03:07:03;15.57;87.19
69503;SHT31;56704;54.242;12.442;2023-06-22T03:09:30;15.50;87.06
69503;SHT31;56704;54.242;12.442;2023-06-22T03:11:57;15.59;86.91
69503;SHT31;56704;54.242;12.442;2023-06-22T03:14:25;15.59;86.88
69503;SHT31;56704;54.242;12.442;2023-06-22T03:16:54;15.61;87.01
69503;SHT31;56704;54.242;12.442;2023-06-22T03:19:28;15.67;87.07
69503;SHT31;56704;54.242;12.442;2023-06-22T03:21:56;15.70;87.20
69503;SHT31;56704;54.242;12.442;2023-06-22T03:24:23;15.73;87.11
69503;SHT31;56704;54.242;12.442;2023-06-22T03:26:49;15.71;87.49
69503;SHT31;56704;54.242;12.442;2023-06-22T03:29:16;15.59;88.49
69503;SHT31;56704;54.242;12.442;2023-06-22T03:31:44;15.60;88.32
69503;SHT31;56704;54.242;12.442;2023-06-22T03:34:10;15.59;88.65
69503;SHT31;56704;54.242;12.442;2023-06-22T03:36:37;15.60;88.41
69503;SHT31;56704;54.242;12.442;2023-06-22T03:39:03;15.60;89.01
69503;SHT31;56704;54.242;12.442;2023-06-22T03:41:30;15.66;88.76
69503;SHT31;56704;54.242;12.442;2023-06-22T03:43:57;15.64;88.67
69503;SHT31;56704;54.242;12.442;2023-06-22T03:46:23;15.70;88.68
69503;SHT31;56704;54.242;12.442;2023-06-22T03:48:51;15.73;88.50
69503;SHT31;56704;54.242;12.442;2023-06-22T03:51:18;15.76;88.12
69503;SHT31;56704;54.242;12.442;2023-06-22T03:53:44;15.73;88.42
69503;SHT31;56704;54.242;12.442;2023-06-22T03:56:11;15.78;87.84
69503;SHT31;56704;54.242;12.442;2023-06-22T03:58:37;15.98;87.12
69503;SHT31;56704;54.242;12.442;2023-06-22T04:01:08;15.87;87.83
69503;SHT31;56704;54.242;12.442;2023-06-22T04:03:36;15.93;87.96
69503;SHT31;56704;54.242;12.442;2023-06-22T04:06:07;15.97;87.84
69503;SHT31;56704;54.242;12.442;2023-06-22T04:08:34;16.00;87.90
69503;SHT31;56704;54.242;12.442;2023-06-22T04:11:00;16.26;86.94
69503;SHT31;56704;54.242;12.442;2023-06-22T04:13:27;16.15;87.36
69503;SHT31;56704;54.242;12.442;2023-06-22T04:15:53;16.26;87.15
69503;SHT31;56704;54.242;12.442;2023-06-22T04:18:20;16.33;87.14
69503;SHT31;56704;54.242;12.442;2023-06-22T04:20:47;16.36;86.75
69503;SHT31;56704;54.242;12.442;2023-06-22T04:23:15;16.45;86.30
69503;SHT31;56704;54.242;12.442;2023-06-22T04:25:41;16.39;86.52
69503;SHT31;56704;54.242;12.442;2023-06-22T04:28:08;16.39;86.50
69503;SHT31;56704;54.242;12.442;2023-06-22T04:30:38;16.32;86.37
69503;SHT31;56704;54.242;12.442;2023-06-22T04:33:12;16.30;86.60
69503;SHT31;56704;54.242;12.442;2023-06-22T04:35:38;16.25;86.87
69503;SHT31;56704;54.242;12.442;2023-06-22T04:38:07;16.38;86.25
69503;SHT31;56704;54.242;12.442;2023-06-22T04:40:35;16.39;85.71
69503;SHT31;56704;54.242;12.442;2023-06-22T04:43:01;16.32;85.87
69503;SHT31;56704;54.242;12.442;2023-06-22T04:45:29;16.41;85.45
69503;SHT31;56704;54.242;12.442;2023-06-22T04:47:55;16.24;85.68
69503;SHT31;56704;54.242;12.442;2023-06-22T04:50:22;16.30;85.66
69503;SHT31;56704;54.242;12.442;2023-06-22T04:52:49;16.42;85.75
69503;SHT31;56704;54.242;12.442;2023-06-22T04:55:16;16.62;85.44
69503;SHT31;56704;54.242;12.442;2023-06-22T04:57:46;16.62;85.42
69503;SHT31;56704;54.242;12.442;2023-06-22T05:00:15;16.65;85.66
69503;SHT31;56704;54.242;12.442;2023-06-22T05:02:43;16.69;85.57
69503;SHT31;56704;54.242;12.442;2023-06-22T05:05:11;16.84;85.83
69503;SHT31;56704;54.242;12.442;2023-06-22T05:07:40;17.06;85.51
69503;SHT31;56704;54.242;12.442;2023-06-22T05:10:09;17.03;85.67
69503;SHT31;56704;54.242;12.442;2023-06-22T05:12:36;17.23;85.11
69503;SHT31;56704;54.242;12.442;2023-06-22T05:15:05;17.31;85.12
69503;SHT31;56704;54.242;12.442;2023-06-22T05:17:32;17.49;85.14
69503;SHT31;56704;54.242;12.442;2023-06-22T05:19:58;17.62;84.58
69503;SHT31;56704;54.242;12.442;2023-06-22T05:22:25;17.72;84.59
69503;SHT31;56704;54.242;12.442;2023-06-22T05:24:52;17.83;84.24
69503;SHT31;56704;54.242;12.442;2023-06-22T05:27:18;17.78;84.52
69503;SHT31;56704;54.242;12.442;2023-06-22T05:29:45;17.81;84.55
69503;SHT31;56704;54.242;12.442;2023-06-22T05:32:13;18.02;84.10
69503;SHT31;56704;54.242;12.442;2023-06-22T05:34:39;18.12;83.96
69503;SHT31;56704;54.242;12.442;2023-06-22T05:37:06;18.20;83.92
69503;SHT31;56704;54.242;12.442;2023-06-22T05:39:35;18.33;83.91
69503;SHT31;56704;54.242;12.442;2023-06-22T05:42:04;18.29;84.11
69503;SHT31;56704;54.242;12.442;2023-06-22T05:44:31;18.40;84.20
69503;SHT31;56704;54.242;12.442;2023-06-22T05:46:58;18.47;84.07
69503;SHT31;56704;54.242;12.442;2023-06-22T05:49:26;18.78;83.27
69503;SHT31;56704;54.242;12.442;2023-06-22T05:51:55;18.95;82.96
69503;SHT31;56704;54.242;12.442;2023-06-22T05:54:21;19.01;82.74
69503;SHT31;56704;54.242;12.442;2023-06-22T05:56:48;19.07;83.07
69503;SHT31;56704;54.242;12.442;2023-06-22T05:59:15;18.92;83.59
69503;SHT31;56704;54.242;12.442;2023-06-22T06:01:41;19.04;83.59
69503;SHT31;56704;54.242;12.442;2023-06-22T06:04:08;19.02;83.79
69503;SHT31;56704;54.242;12.442;2023-06-22T06:06:42;19.09;83.56
69503;SHT31;56704;54.242;12.442;2023-06-22T06:09:08;19.15;83.87
69503;SHT31;56704;54.242;12.442;2023-06-22T06:11:36;19.19;83.88
69503;SHT31;56704;54.242;12.442;2023-06-22T06:14:03;19.38;83.33
69503;SHT31;56704;54.242;12.442;2023-06-22T06:16:29;19.45;83.52
69503;SHT31;56704;54.242;12.442;2023-06-22T06:18:56;19.74;82.63
69503;SHT31;56704;54.242;12.442;2023-06-22T06:21:23;19.80;82.36
69503;SHT31;56704;54.242;12.442;2023-06-22T06:23:51;19.93;81.91
69503;SHT31;56704;54.242;12.442;2023-06-22T06:26:18;20.10;81.75
69503;SHT31;56704;54.242;12.442;2023-06-22T06:28:53;20.25;81.18
69503;SHT31;56704;54.242;12.442;2023-06-22T06:31:19;20.28;81.17
69503;SHT31;56704;54.242;12.442;2023-06-22T06:33:46;20.34;80.87
69503;SHT31;56704;54.242;12.442;2023-06-22T06:36:12;20.32;80.86
69503;SHT31;56704;54.242;12.442;2023-06-22T06:38:39;20.41;80.90
69503;SHT31;56704;54.242;12.442;2023-06-22T06:41:07;20.38;80.83
69503;SHT31;56704;54.242;12.442;2023-06-22T06:43:34;20.51;80.64
69503;SHT31;56704;54.242;12.442;2023-06-22T06:46:00;20.71;80.09
69503;SHT31;56704;54.242;12.442;2023-06-22T06:48:28;20.83;79.77
69503;SHT31;56704;54.242;12.442;2023-06-22T06:50:55;20.89;79.35
69503;SHT31;56704;54.242;12.442;2023-06-22T06:53:21;20.95;79.34
69503;SHT31;56704;54.242;12.442;2023-06-22T06:55:48;20.90;78.99
69503;SHT31;56704;54.242;12.442;2023-06-22T06:58:16;20.97;78.94
69503;SHT31;56704;54.242;12.442;2023-06-22T07:00:42;21.07;77.74
69503;SHT31;56704;54.242;12.442;2023-06-22T07:03:11;21.04;77.10
69503;SHT31;56704;54.242;12.442;2023-06-22T07:05:38;21.06;76.20
69503;SHT31;56704;54.242;12.442;2023-06-22T07:08:04;21.00;75.98
69503;SHT31;56704;54.242;12.442;2023-06-22T07:10:31;21.07;77.10
69503;SHT31;56704;54.242;12.442;2023-06-22T07:12:57;21.13;76.56
69503;SHT31;56704;54.242;12.442;2023-06-22T07:15:25;20.99;77.09
69503;SHT31;56704;54.242;12.442;2023-06-22T07:17:52;21.08;77.40
69503;SHT31;56704;54.242;12.442;2023-06-22T07:20:18;21.14;75.74
69503;SHT31;56704;54.242;12.442;2023-06-22T07:22:45;21.31;76.80
69503;SHT31;56704;54.242;12.442;2023-06-22T07:25:12;21.51;74.59
69503;SHT31;56704;54.242;12.442;2023-06-22T07:27:44;21.71;73.95
69503;SHT31;56704;54.242;12.442;2023-06-22T07:30:12;21.78;72.94
69503;SHT31;56704;54.242;12.442;2023-06-22T07:32:40;22.05;72.57
69503;SHT31;56704;54.242;12.442;2023-06-22T07:35:08;22.36;71.49
69503;SHT31;56704;54.242;12.442;2023-06-22T07:37:34;22.78;69.77
69503;SHT31;56704;54.242;12.442;2023-06-22T07:40:01;23.14;67.93
69503;SHT31;56704;54.242;12.442;2023-06-22T07:42:31;23.63;69.42
69503;SHT31;56704;54.242;12.442;2023-06-22T07:44:59;24.12;66.18
69503;SHT31;56704;54.242;12.442;2023-06-22T07:47:25;24.12;64.88
69503;SHT31;56704;54.242;12.442;2023-06-22T07:49:54;24.07;61.45
69503;SHT31;56704;54.242;12.442;2023-06-22T07:52:23;24.34;60.64
69503;SHT31;56704;54.242;12.442;2023-06-22T07:54:50;24.82;61.06
69503;SHT31;56704;54.242;12.442;2023-06-22T07:57:16;25.13;57.34
69503;SHT31;56704;54.242;12.442;2023-06-22T07:59:43;25.13;58.38
69503;SHT31;56704;54.242;12.442;2023-06-22T08:02:09;24.91;55.70
69503;SHT31;56704;54.242;12.442;2023-06-22T08:04:36;24.74;55.45
69503;SHT31;56704;54.242;12.442;2023-06-22T08:07:05;24.72;55.36
69503;SHT31;56704;54.242;12.442;2023-06-22T08:09:32;24.86;56.63
69503;SHT31;56704;54.242;12.442;2023-06-22T08:11:59;24.61;54.92
69503;SHT31;56704;54.242;12.442;2023-06-22T08:14:26;24.47;55.71
69503;SHT31;56704;54.242;12.442;2023-06-22T08:16:53;24.09;57.42
69503;SHT31;56704;54.242;12.442;2023-06-22T08:19:20;24.13;58.78
69503;SHT31;56704;54.242;12.442;2023-06-22T08:21:51;24.48;58.03
69503;SHT31;56704;54.242;12.442;2023-06-22T08:24:19;24.51;56.06
69503;SHT31;56704;54.242;12.442;2023-06-22T08:26:45;24.51;53.54
69503;SHT31;56704;54.242;12.442;2023-06-22T08:29:12;24.69;54.26
69503;SHT31;56704;54.242;12.442;2023-06-22T08:31:39;24.79;55.29
69503;SHT31;56704;54.242;12.442;2023-06-22T08:34:05;24.51;56.27
69503;SHT31;56704;54.242;12.442;2023-06-22T08:36:32;24.69;57.20
69503;SHT31;56704;54.242;12.442;2023-06-22T08:39:08;24.75;55.91
69503;SHT31;56704;54.242;12.442;2023-06-22T08:41:36;24.62;54.56
69503;SHT31;56704;54.242;12.442;2023-06-22T08:44:03;24.58;54.34
69503;SHT31;56704;54.242;12.442;2023-06-22T08:46:30;24.67;53.60
69503;SHT31;56704;54.242;12.442;2023-06-22T08:48:59;24.65;52.70
69503;SHT31;56704;54.242;12.442;2023-06-22T08:51:26;24.78;53.25
69503;SHT31;56704;54.242;12.442;2023-06-22T08:53:52;24.96;52.87
69503;SHT31;56704;54.242;12.442;2023-06-22T08:56:19;25.20;53.16
69503;SHT31;56704;54.242;12.442;2023-06-22T08:58:47;25.27;52.07
69503;SHT31;56704;54.242;12.442;2023-06-22T09:01:13;25.34;50.73
69503;SHT31;56704;54.242;12.442;2023-06-22T09:03:41;25.39;47.04
69503;SHT31;56704;54.242;12.442;2023-06-22T09:06:07;25.62;49.46
69503;SHT31;56704;54.242;12.442;2023-06-22T09:08:35;25.50;46.50
69503;SHT31;56704;54.242;12.442;2023-06-22T09:11:02;25.59;46.56
69503;SHT31;56704;54.242;12.442;2023-06-22T09:13:30;25.73;48.33
69503;SHT31;56704;54.242;12.442;2023-06-22T09:15:59;25.95;45.74
69503;SHT31;56704;54.242;12.442;2023-06-22T09:18:26;25.78;45.37
69503;SHT31;56704;54.242;12.442;2023-06-22T09:20:52;25.49;47.95
69503;SHT31;56704;54.242;12.442;2023-06-22T09:23:19;25.42;47.92
69503;SHT31;56704;54.242;12.442;2023-06-22T09:25:46;25.57;47.66
69503;SHT31;56704;54.242;12.442;2023-06-22T09:28:13;25.83;47.84
69503;SHT31;56704;54.242;12.442;2023-06-22T09:30:40;25.85;48.24
69503;SHT31;56704;54.242;12.442;2023-06-22T09:33:08;26.05;47.25
69503;SHT31;56704;54.242;12.442;2023-06-22T09:35:34;26.06;48.05
69503;SHT31;56704;54.242;12.442;2023-06-22T09:38:01;25.97;46.11
69503;SHT31;56704;54.242;12.442;2023-06-22T09:40:27;25.87;46.15
69503;SHT31;56704;54.242;12.442;2023-06-22T09:42:54;25.98;46.64
69503;SHT31;56704;54.242;12.442;2023-06-22T09:45:20;26.25;45.64
69503;SHT31;56704;54.242;12.442;2023-06-22T09:47:47;26.59;45.15
69503;SHT31;56704;54.242;12.442;2023-06-22T09:50:15;26.29;44.93
69503;SHT31;56704;54.242;12.442;2023-06-22T09:52:42;26.22;44.03
69503;SHT31;56704;54.242;12.442;2023-06-22T09:55:11;26.15;43.99
69503;SHT31;56704;54.242;12.442;2023-06-22T09:57:38;26.21;43.79
69503;SHT31;56704;54.242;12.442;2023-06-22T10:00:06;26.12;44.38
69503;SHT31;56704;54.242;12.442;2023-06-22T10:02:35;26.31;43.88
69503;SHT31;56704;54.242;12.442;2023-06-22T10:05:02;26.17;43.99
69503;SHT31;56704;54.242;12.442;2023-06-22T10:07:30;26.25;44.19
69503;SHT31;56704;54.242;12.442;2023-06-22T10:09:57;26.31;45.06
69503;SHT31;56704;54.242;12.442;2023-06-22T10:12:23;26.25;42.86
69503;SHT31;56704;54.242;12.442;2023-06-22T10:14:50;26.43;43.15
69503;SHT31;56704;54.242;12.442;2023-06-22T10:17:17;26.49;44.23
69503;SHT31;56704;54.242;12.442;2023-06-22T10:19:43;26.41;45.16
69503;SHT31;56704;54.242;12.442;2023-06-22T10:22:10;26.62;44.48
69503;SHT31;56704;54.242;12.442;2023-06-22T10:24:38;26.43;44.23
69503;SHT31;56704;54.242;12.442;2023-06-22T10:27:09;26.53;44.48
69503;SHT31;56704;54.242;12.442;2023-06-22T10:29:36;26.21;43.57
69503;SHT31;56704;54.242;12.442;2023-06-22T10:32:03;26.48;43.72
69503;SHT31;56704;54.242;12.442;2023-06-22T10:34:29;26.52;42.49
69503;SHT31;56704;54.242;12.442;2023-06-22T10:36:56;26.36;42.47
69503;SHT31;56704;54.242;12.442;2023-06-22T10:39:23;26.17;42.66
69503;SHT31;56704;54.242;12.442;2023-06-22T10:41:50;26.38;43.22
69503;SHT31;56704;54.242;12.442;2023-06-22T10:44:17;26.46;43.32
69503;SHT31;56704;54.242;12.442;2023-06-22T10:46:43;26.64;42.82
69503;SHT31;56704;54.242;12.442;2023-06-22T10:49:10;26.89;43.50
69503;SHT31;56704;54.242;12.442;2023-06-22T10:51:37;26.80;43.19
69503;SHT31;56704;54.242;12.442;2023-06-22T10:54:03;26.82;41.75
69503;SHT31;56704;54.242;12.442;2023-06-22T10:56:30;26.84;42.95
69503;SHT31;56704;54.242;12.442;2023-06-22T10:59:00;27.20;42.75
69503;SHT31;56704;54.242;12.442;2023-06-22T11:01:27;27.38;42.34
69503;SHT31;56704;54.242;12.442;2023-06-22T11:03:53;27.55;41.73
69503;SHT31;56704;54.242;12.442;2023-06-22T11:06:20;27.77;41.41
69503;SHT31;56704;54.242;12.442;2023-06-22T11:08:46;28.09;41.25
69503;SHT31;56704;54.242;12.442;2023-06-22T11:11:13;27.96;40.68
69503;SHT31;56704;54.242;12.442;2023-06-22T11:13:39;28.05;40.24
69503;SHT31;56704;54.242;12.442;2023-06-22T11:16:07;28.13;40.13
69503;SHT31;56704;54.242;12.442;2023-06-22T11:18:34;28.35;40.23
69503;SHT31;56704;54.242;12.442;2023-06-22T11:21:00;28.43;41.08
69503;SHT31;56704;54.242;12.442;2023-06-22T11:23:27;28.59;39.19
69503;SHT31;56704;54.242;12.442;2023-06-22T11:25:54;28.51;39.00
69503;SHT31;56704;54.242;12.442;2023-06-22T11:28:20;28.74;38.96
69503;SHT31;56704;54.242;12.442;2023-06-22T11:30:47;28.65;38.03
69503;SHT31;56704;54.242;12.442;2023-06-22T11:33:15;28.68;38.71
69503;SHT31;56704;54.242;12.442;2023-06-22T11:35:41;28.64;37.72
69503;SHT31;56704;54.242;12.442;2023-06-22T11:38:08;28.82;37.60
69503;SHT31;56704;54.242;12.442;2023-06-22T11:40:34;29.09;36.51
69503;SHT31;56704;54.242;12.442;2023-06-22T11:43:01;29.07;36.63
69503;SHT31;56704;54.242;12.442;2023-06-22T11:45:28;29.09;37.80
69503;SHT31;56704;54.242;12.442;2023-06-22T11:47:54;28.87;37.44
69503;SHT31;56704;54.242;12.442;2023-06-22T11:50:22;29.15;37.30
69503;SHT31;56704;54.242;12.442;2023-06-22T11:52:49;29.31;37.19
69503;SHT31;56704;54.242;12.442;2023-06-22T11:55:16;29.28;37.19
69503;SHT31;56704;54.242;12.442;2023-06-22T11:57:53;29.39;35.62
69503;SHT31;56704;54.242;12.442;2023-06-22T12:00:20;29.60;35.73
69503;SHT31;56704;54.242;12.442;2023-06-22T12:02:49;29.55;34.91
69503;SHT31;56704;54.242;12.442;2023-06-22T12:05:16;29.69;34.97
69503;SHT31;56704;54.242;12.442;2023-06-22T12:07:44;29.84;33.86
69503;SHT31;56704;54.242;12.442;2023-06-22T12:10:11;29.87;34.58
69503;SHT31;56704;54.242;12.442;2023-06-22T12:12:37;29.63;34.39
69503;SHT31;56704;54.242;12.442;2023-06-22T12:15:05;29.56;33.62
69503;SHT31;56704;54.242;12.442;2023-06-22T12:17:31;29.58;34.20
69503;SHT31;56704;54.242;12.442;2023-06-22T12:19:58;29.70;34.47
69503;SHT31;56704;54.242;12.442;2023-06-22T12:22:25;29.84;35.78
69503;SHT31;56704;54.242;12.442;2023-06-22T12:24:53;29.79;34.72
69503;SHT31;56704;54.242;12.442;2023-06-22T12:27:19;30.06;33.87
69503;SHT31;56704;54.242;12.442;2023-06-22T12:29:46;30.24;33.67
69503;SHT31;56704;54.242;12.442;2023-06-22T12:32:13;30.18;33.94
69503;SHT31;56704;54.242;12.442;2023-06-22T12:34:41;30.35;34.51
69503;SHT31;56704;54.242;12.442;2023-06-22T12:37:07;30.38;33.66
69503;SHT31;56704;54.242;12.442;2023-06-22T12:39:34;30.28;33.73
69503;SHT31;56704;54.242;12.442;2023-06-22T12:42:03;30.35;33.53
69503;SHT31;56704;54.242;12.442;2023-06-22T12:44:29;30.24;33.02
69503;SHT31;56704;54.242;12.442;2023-06-22T12:46:56;30.10;33.20
69503;SHT31;56704;54.242;12.442;2023-06-22T12:49:22;30.24;33.16
69503;SHT31;56704;54.242;12.442;2023-06-22T12:51:49;30.23;32.25
69503;SHT31;56704;54.242;12.442;2023-06-22T12:54:15;30.51;32.81
69503;SHT31;56704;54.242;12.442;2023-06-22T12:56:42;30.75;32.02
69503;SHT31;56704;54.242;12.442;2023-06-22T12:59:11;30.67;31.26
69503;SHT31;56704;54.242;12.442;2023-06-22T13:01:38;30.67;30.44
69503;SHT31;56704;54.242;12.442;2023-06-22T13:04:04;30.54;31.03
69503;SHT31;56704;54.242;12.442;2023-06-22T13:06:31;30.69;31.29
69503;SHT31;56704;54.242;12.442;2023-06-22T13:08:57;30.67;30.99
69503;SHT31;56704;54.242;12.442;2023-06-22T13:11:24;30.47;31.27
69503;SHT31;56704;54.242;12.442;2023-06-22T13:13:51;30.59;31.04
69503;SHT31;56704;54.242;12.442;2023-06-22T13:16:18;30.71;31.02
69503;SHT31;56704;54.242;12.442;2023-06-22T13:18:45;30.82;31.03
69503;SHT31;56704;54.242;12.442;2023-06-22T13:21:12;31.13;30.97
69503;SHT31;56704;54.242;12.442;2023-06-22T13:23:39;31.00;30.78
69503;SHT31;56704;54.242;12.442;2023-06-22T13:26:07;31.26;30.18
69503;SHT31;56704;54.242;12.442;2023-06-22T13:28:34;31.16;29.93
69503;SHT31;56704;54.242;12.442;2023-06-22T13:31:00;30.93;30.63
69503;SHT31;56704;54.242;12.442;2023-06-22T13:33:28;30.93;29.89
69503;SHT31;56704;54.242;12.442;2023-06-22T13:35:55;31.03;31.43
69503;SHT31;56704;54.242;12.442;2023-06-22T13:38:21;31.09;31.05
69503;SHT31;56704;54.242;12.442;2023-06-22T13:40:48;31.16;30.51
69503;SHT31;56704;54.242;12.442;2023-06-22T13:43:15;31.22;30.83
69503;SHT31;56704;54.242;12.442;2023-06-22T13:45:42;31.29;30.92
69503;SHT31;56704;54.242;12.442;2023-06-22T13:48:09;31.00;31.40
69503;SHT31;56704;54.242;12.442;2023-06-22T13:50:37;30.98;30.45
69503;SHT31;56704;54.242;12.442;2023-06-22T13:53:04;30.76;29.60
69503;SHT31;56704;54.242;12.442;2023-06-22T13:55:31;30.75;30.27
69503;SHT31;56704;54.242;12.442;2023-06-22T13:57:57;30.90;30.38
69503;SHT31;56704;54.242;12.442;2023-06-22T14:00:24;31.02;30.11
69503;SHT31;56704;54.242;12.442;2023-06-22T14:02:50;31.10;29.96
69503;SHT31;56704;54.242;12.442;2023-06-22T14:05:17;31.09;30.25
69503;SHT31;56704;54.242;12.442;2023-06-22T14:07:45;31.09;28.05
69503;SHT31;56704;54.242;12.442;2023-06-22T14:10:11;31.23;28.89
69503;SHT31;56704;54.242;12.442;2023-06-22T14:12:38;31.36;28.81
69503;SHT31;56704;54.242;12.442;2023-06-22T14:15:05;31.34;28.33
69503;SHT31;56704;54.242;12.442;2023-06-22T14:17:32;31.19;28.28
69503;SHT31;56704;54.242;12.442;2023-06-22T14:19:59;31.02;27.95
69503;SHT31;56704;54.242;12.442;2023-06-22T14:22:25;31.15;28.63
69503;SHT31;56704;54.242;12.442;2023-06-22T14:24:55;31.04;28.47
69503;SHT31;56704;54.242;12.442;2023-06-22T14:27:23;30.99;28.78
69503;SHT31;56704;54.242;12.442;2023-06-22T14:29:49;31.23;29.66
69503;SHT31;56704;54.242;12.442;2023-06-22T14:32:16;31.25;28.76
69503;SHT31;56704;54.242;12.442;2023-06-22T14:34:43;31.10;29.71
69503;SHT31;56704;54.242;12.442;2023-06-22T14:37:10;30.86;29.65
69503;SHT31;56704;54.242;12.442;2023-06-22T14:39:38;30.88;29.68
69503;SHT31;56704;54.242;12.442;2023-06-22T14:42:06;30.88;29.50
69503;SHT31;56704;54.242;12.442;2023-06-22T14:44:35;30.86;29.11
69503;SHT31;56704;54.242;12.442;2023-06-22T14:47:02;30.78;29.66
69503;SHT31;56704;54.242;12.442;2023-06-22T14:49:28;30.74;30.21
69503;SHT31;56704;54.242;12.442;2023-06-22T14:51:55;30.55;30.13
69503;SHT31;56704;54.242;12.442;2023-06-22T14:54:22;30.44;30.42
69503;SHT31;56704;54.242;12.442;2023-06-22T14:56:48;30.57;30.23
69503;SHT31;56704;54.242;12.442;2023-06-22T14:59:16;30.59;30.98
69503;SHT31;56704;54.242;12.442;2023-06-22T15:01:43;30.45;30.89
69503;SHT31;56704;54.242;12.442;2023-06-22T15:04:09;30.49;31.56
69503;SHT31;56704;54.242;12.442;2023-06-22T15:06:36;30.68;31.71
69503;SHT31;56704;54.242;12.442;2023-06-22T15:09:02;30.76;31.19
69503;SHT31;56704;54.242;12.442;2023-06-22T15:11:29;30.74;30.94
69503;SHT31;56704;54.242;12.442;2023-06-22T15:13:58;30.48;30.32
69503;SHT31;56704;54.242;12.442;2023-06-22T15:16:26;30.49;31.12